sensor_id;sensor_type;location;lat;lon;timestamp;temperature;humidity
18043;DHT22;9146;48.074;11.968;2023-05-03T00:01:10;6.20;99.90
18043;DHT22;9146;48.074;11.968;2023-05-03T00:03:39;6.20;99.90
18043;DHT22;9146;48.074;11.968;2023-05-03T00:06:09;6.20;99.90
18043;DHT22;9146;48.074;11.968;2023-05-03T00:08:36;6.20;99.90
18043;DHT22;9146;48.074;11.968;2023-05-03T00:11:03;6.20;99.90
18043;DHT22;9146;48.074;11.968;2023-05-03T00:13:30;6.10;99.90
18043;DHT22;9146;48.074;11.968;2023-05-03T00:15:57;6.10;99.90
18043;DHT22;9146;48.074;11.968;2023-05-03T00:18:24;6.00;99.90
18043;DHT22;9146;48.074;11.968;2023-05-03T00:20:53;6.00;99.90
18043;DHT22;9146;48.074;11.968;2023-05-03T00:23:20;5.90;99.90
18043;DHT22;9146;48.074;11.968;2023-05-03T00:25:51;5.90;99.90
18043;DHT22;9146;48.074;11.968;2023-05-03T00:28:18;5.90;99.90
18043;DHT22;9146;48.074;11.968;2023-05-03T00:30:46;5.90;99.90
18043;DHT22;9146;48.074;11.968;2023-05-03T00:33:13;5.90;99.90
18043;DHT22;9146;48.074;11.968;2023-05-03T00:35:39;5.90;99.90
18043;DHT22;9146;48.074;11.968;2023-05-03T00:38:08;5.90;99.90
18043;DHT22;9146;48.074;11.968;2023-05-03T00:40:35;5.90;99.90
18043;DHT22;9146;48.074;11.968;2023-05-03T00:43:01;6.00;99.90
18043;DHT22;9146;48.074;11.968;2023-05-03T00:45:29;6.00;99.90
18043;DHT22;9146;48.074;11.968;2023-05-03T00:47:57;6.10;99.90
18043;DHT22;9146;48.074;11.968;2023-05-03T00:50:24;6.20;99.90
18043;DHT22;9146;48.074;11.968;2023-05-03T00:52:50;6.20;99.90
18043;DHT22;9146;48.074;11.968;2023-05-03T00:55:19;6.30;99.90
18043;DHT22;9146;48.074;11.968;2023-05-03T00:57:46;6.40;99.90
18043;DHT22;9146;48.074;11.968;2023-05-03T01:00:14;6.40;99.90
18043;DHT22;9146;48.074;11.968;2023-05-03T01:02:42;6.50;99.90
18043;DHT22;9146;48.074;11.968;2023-05-03T01:05:09;6.50;99.90
18043;DHT22;9146;48.074;11.968;2023-05-03T01:07:42;6.60;99.90
18043;DHT22;9146;48.074;11.968;2023-05-03T01:10:31;6.70;99.90
18043;DHT22;9146;48.074;11.968;2023-05-03T01:13:06;6.70;99.90
18043;DHT22;9146;48.074;11.968;2023-05-03T01:15:43;6.80;99.90
18043;DHT22;9146;48.074;11.968;2023-05-03T01:18:17;6.80;99.90
18043;DHT22;9146;48.074;11.968;2023-05-03T01:20:47;6.90;99.90
18043;DHT22;9146;48.074;11.968;2023-05-03T01:23:28;6.90;99.90
18043;DHT22;9146;48.074;11.968;2023-05-03T01:26:13;6.90;99.90
18043;DHT22;9146;48.074;11.968;2023-05-03T01:28:40;7.00;99.90
18043;DHT22;9146;48.074;11.968;2023-05-03T01:31:07;7.00;99.90
18043;DHT22;9146;48.074;11.968;2023-05-03T01:33:44;7.00;99.90
18043;DHT22;9146;48.074;11.968;2023-05-03T01:36:17;7.00;99.90
18043;DHT22;9146;48.074;11.968;2023-05-03T01:38:47;7.10;99.90
18043;DHT22;9146;48.074;11.968;2023-05-03T01:41:17;7.10;99.90
18043;DHT22;9146;48.074;11.968;2023-05-03T01:43:46;7.00;99.90
18043;DHT22;9146;48.074;11.968;2023-05-03T01:46:13;7.00;99.90
18043;DHT22;9146;48.074;11.968;2023-05-03T01:48:40;7.00;99.90
18043;DHT22;9146;48.074;11.968;2023-05-03T01:51:07;7.00;99.90
18043;DHT22;9146;48.074;11.968;2023-05-03T01:53:34;7.00;99.90
18043;DHT22;9146;48.074;11.968;2023-05-03T01:56:02;6.90;99.90
18043;DHT22;9146;48.074;11.968;2023-05-03T01:58:30;6.90;99.90
18043;DHT22;9146;48.074;11.968;2023-05-03T02:00:57;6.90;99.90
18043;DHT22;9146;48.074;11.968;2023-05-03T02:03:24;6.90;99.90
18043;DHT22;9146;48.074;11.968;2023-05-03T02:05:51;6.80;99.90
18043;DHT22;9146;48.074;11.968;2023-05-03T02:08:17;6.80;99.90
18043;DHT22;9146;48.074;11.968;2023-05-03T02:10:44;6.80;99.90
18043;DHT22;9146;48.074;11.968;2023-05-03T02:13:11;6.80;99.90
18043;DHT22;9146;48.074;11.968;2023-05-03T02:15:39;6.70;99.90
18043;DHT22;9146;48.074;11.968;2023-05-03T02:18:06;6.70;99.90
18043;DHT22;9146;48.074;11.968;2023-05-03T02:20:34;6.60;99.90
18043;DHT22;9146;48.074;11.968;2023-05-03T02:23:02;6.60;99.90
18043;DHT22;9146;48.074;11.968;2023-05-03T02:25:29;6.60;99.90
18043;DHT22;9146;48.074;11.968;2023-05-03T02:27:56;6.60;99.90
18043;DHT22;9146;48.074;11.968;2023-05-03T02:30:23;6.60;99.90
18043;DHT22;9146;48.074;11.968;2023-05-03T02:32:51;6.50;99.90
18043;DHT22;9146;48.074;11.968;2023-05-03T02:35:19;6.50;99.90
18043;DHT22;9146;48.074;11.968;2023-05-03T02:37:46;6.40;99.90
18043;DHT22;9146;48.074;11.968;2023-05-03T02:40:14;6.40;99.90
18043;DHT22;9146;48.074;11.968;2023-05-03T02:42:41;6.30;99.90
18043;DHT22;9146;48.074;11.968;2023-05-03T02:45:08;6.20;99.90
18043;DHT22;9146;48.074;11.968;2023-05-03T02:47:35;6.20;99.90
18043;DHT22;9146;48.074;11.968;2023-05-03T02:50:04;6.10;99.90
18043;DHT22;9146;48.074;11.968;2023-05-03T02:52:32;6.10;99.90
18043;DHT22;9146;48.074;11.968;2023-05-03T02:54:59;6.00;99.90
18043;DHT22;9146;48.074;11.968;2023-05-03T02:57:26;6.00;99.90
18043;DHT22;9146;48.074;11.968;2023-05-03T02:59:52;6.00;99.90
18043;DHT22;9146;48.074;11.968;2023-05-03T03:02:19;6.00;99.90
18043;DHT22;9146;48.074;11.968;2023-05-03T03:04:47;6.00;99.90
18043;DHT22;9146;48.074;11.968;2023-05-03T03:07:15;6.10;99.90
18043;DHT22;9146;48.074;11.968;2023-05-03T03:09:42;6.10;99.90
18043;DHT22;9146;48.074;11.968;2023-05-03T03:12:09;6.20;99.90
18043;DHT22;9146;48.074;11.968;2023-05-03T03:14:36;6.10;99.90
18043;DHT22;9146;48.074;11.968;2023-05-03T03:17:06;6.20;99.90
18043;DHT22;9146;48.074;11.968;2023-05-03T03:19:34;6.20;99.90
18043;DHT22;9146;48.074;11.968;2023-05-03T03:22:01;6.30;99.90
18043;DHT22;9146;48.074;11.968;2023-05-03T03:24:29;6.30;99.90
18043;DHT22;9146;48.074;11.968;2023-05-03T03:26:56;6.30;99.90
18043;DHT22;9146;48.074;11.968;2023-05-03T03:29:23;6.30;99.90
18043;DHT22;9146;48.074;11.968;2023-05-03T03:31:50;6.30;99.90
18043;DHT22;9146;48.074;11.968;2023-05-03T03:34:16;6.30;99.90
18043;DHT22;9146;48.074;11.968;2023-05-03T03:36:43;6.30;99.90
18043;DHT22;9146;48.074;11.968;2023-05-03T03:39:10;6.30;99.90
18043;DHT22;9146;48.074;11.968;2023-05-03T03:41:38;6.30;99.90
18043;DHT22;9146;48.074;11.968;2023-05-03T03:44:05;6.20;99.90
18043;DHT22;9146;48.074;11.968;2023-05-03T03:46:33;6.30;99.90
18043;DHT22;9146;48.074;11.968;2023-05-03T03:49:00;6.30;99.90
18043;DHT22;9146;48.074;11.968;2023-05-03T03:51:26;6.40;99.90
18043;DHT22;9146;48.074;11.968;2023-05-03T03:53:53;6.40;99.90
18043;DHT22;9146;48.074;11.968;2023-05-03T03:56:20;6.50;99.90
18043;DHT22;9146;48.074;11.968;2023-05-03T03:58:50;6.50;99.90
18043;DHT22;9146;48.074;11.968;2023-05-03T04:01:16;6.50;99.90
18043;DHT22;9146;48.074;11.968;2023-05-03T04:03:44;6.60;99.90
18043;DHT22;9146;48.074;11.968;2023-05-03T04:06:12;6.60;99.90
18043;DHT22;9146;48.074;11.968;2023-05-03T04:08:38;6.70;99.90
18043;DHT22;9146;48.074;11.968;2023-05-03T04:11:09;6.70;99.90
18043;DHT22;9146;48.074;11.968;2023-05-03T04:13:36;6.80;99.90
18043;DHT22;9146;48.074;11.968;2023-05-03T04:16:05;6.90;99.90
18043;DHT22;9146;48.074;11.968;2023-05-03T04:18:32;6.90;99.90
18043;DHT22;9146;48.074;11.968;2023-05-03T04:21:00;7.00;99.90
18043;DHT22;9146;48.074;11.968;2023-05-03T04:23:27;7.10;99.90
18043;DHT22;9146;48.074;11.968;2023-05-03T04:25:54;7.10;99.90
18043;DHT22;9146;48.074;11.968;2023-05-03T04:28:21;7.20;99.90
18043;DHT22;9146;48.074;11.968;2023-05-03T04:30:49;7.20;99.90
18043;DHT22;9146;48.074;11.968;2023-05-03T04:33:18;7.30;99.90
18043;DHT22;9146;48.074;11.968;2023-05-03T04:35:48;7.30;99.90
18043;DHT22;9146;48.074;11.968;2023-05-03T04:38:15;7.40;99.90
18043;DHT22;9146;48.074;11.968;2023-05-03T04:40:43;7.50;99.90
18043;DHT22;9146;48.074;11.968;2023-05-03T04:43:10;7.50;99.90
18043;DHT22;9146;48.074;11.968;2023-05-03T04:45:37;7.60;99.90
18043;DHT22;9146;48.074;11.968;2023-05-03T04:48:04;7.70;99.90
18043;DHT22;9146;48.074;11.968;2023-05-03T04:50:32;7.80;99.90
18043;DHT22;9146;48.074;11.968;2023-05-03T04:52:59;7.90;99.90
18043;DHT22;9146;48.074;11.968;2023-05-03T04:55:27;8.00;99.90
18043;DHT22;9146;48.074;11.968;2023-05-03T04:57:54;8.10;99.90
18043;DHT22;9146;48.074;11.968;2023-05-03T05:00:21;8.30;99.90
18043;DHT22;9146;48.074;11.968;2023-05-03T05:02:49;8.30;99.90
18043;DHT22;9146;48.074;11.968;2023-05-03T05:05:16;8.40;99.90
18043;DHT22;9146;48.074;11.968;2023-05-03T05:07:44;8.50;99.90
18043;DHT22;9146;48.074;11.968;2023-05-03T05:10:12;8.50;99.90
18043;DHT22;9146;48.074;11.968;2023-05-03T05:12:39;8.60;99.90
18043;DHT22;9146;48.074;11.968;2023-05-03T05:15:07;8.60;99.90
18043;DHT22;9146;48.074;11.968;2023-05-03T05:17:35;8.70;99.90
18043;DHT22;9146;48.074;11.968;2023-05-03T05:20:02;8.80;99.90
18043;DHT22;9146;48.074;11.968;2023-05-03T05:22:31;8.90;99.90
18043;DHT22;9146;48.074;11.968;2023-05-03T05:25:00;8.90;99.90
18043;DHT22;9146;48.074;11.968;2023-05-03T05:27:26;9.00;99.90
18043;DHT22;9146;48.074;11.968;2023-05-03T05:29:53;9.10;99.90
18043;DHT22;9146;48.074;11.968;2023-05-03T05:32:20;9.20;99.90
18043;DHT22;9146;48.074;11.968;2023-05-03T05:34:47;9.30;99.90
18043;DHT22;9146;48.074;11.968;2023-05-03T05:37:17;9.30;99.90
18043;DHT22;9146;48.074;11.968;2023-05-03T05:39:44;9.30;99.90
18043;DHT22;9146;48.074;11.968;2023-05-03T05:42:13;9.30;99.90
18043;DHT22;9146;48.074;11.968;2023-05-03T05:44:40;9.40;99.90
18043;DHT22;9146;48.074;11.968;2023-05-03T05:47:07;9.30;99.90
18043;DHT22;9146;48.074;11.968;2023-05-03T05:49:35;9.30;99.90
18043;DHT22;9146;48.074;11.968;2023-05-03T05:52:02;9.30;99.90
18043;DHT22;9146;48.074;11.968;2023-05-03T05:54:29;9.40;99.90
18043;DHT22;9146;48.074;11.968;2023-05-03T05:56:56;9.40;99.90
18043;DHT22;9146;48.074;11.968;2023-05-03T05:59:24;9.40;99.90
18043;DHT22;9146;48.074;11.968;2023-05-03T06:01:51;9.50;99.90
18043;DHT22;9146;48.074;11.968;2023-05-03T06:04:18;9.60;99.90
18043;DHT22;9146;48.074;11.968;2023-05-03T06:06:45;9.60;99.90
18043;DHT22;9146;48.074;11.968;2023-05-03T06:09:12;9.70;99.90
18043;DHT22;9146;48.074;11.968;2023-05-03T06:11:40;9.70;99.90
18043;DHT22;9146;48.074;11.968;2023-05-03T06:14:07;9.70;99.90
18043;DHT22;9146;48.074;11.968;2023-05-03T06:16:36;9.90;99.90
18043;DHT22;9146;48.074;11.968;2023-05-03T06:19:03;9.90;99.90
18043;DHT22;9146;48.074;11.968;2023-05-03T06:21:30;10.10;99.90
18043;DHT22;9146;48.074;11.968;2023-05-03T06:23:57;10.00;99.90
18043;DHT22;9146;48.074;11.968;2023-05-03T06:26:24;10.00;99.90
18043;DHT22;9146;48.074;11.968;2023-05-03T06:28:51;10.10;99.90
18043;DHT22;9146;48.074;11.968;2023-05-03T06:31:18;10.10;99.90
18043;DHT22;9146;48.074;11.968;2023-05-03T06:33:46;10.10;99.90
18043;DHT22;9146;48.074;11.968;2023-05-03T06:36:13;10.10;99.90
18043;DHT22;9146;48.074;11.968;2023-05-03T06:38:40;10.10;99.90
18043;DHT22;9146;48.074;11.968;2023-05-03T06:41:07;10.20;99.90
18043;DHT22;9146;48.074;11.968;2023-05-03T06:43:34;10.20;99.90
18043;DHT22;9146;48.074;11.968;2023-05-03T06:46:01;10.30;99.90
18043;DHT22;9146;48.074;11.968;2023-05-03T06:48:28;10.40;99.90
18043;DHT22;9146;48.074;11.968;2023-05-03T06:50:56;10.30;99.90
18043;DHT22;9146;48.074;11.968;2023-05-03T06:53:23;10.30;99.90
18043;DHT22;9146;48.074;11.968;2023-05-03T06:55:50;10.20;99.90
18043;DHT22;9146;48.074;11.968;2023-05-03T06:58:17;10.20;99.90
18043;DHT22;9146;48.074;11.968;2023-05-03T07:00:45;10.20;99.90
18043;DHT22;9146;48.074;11.968;2023-05-03T07:03:12;10.40;99.90
18043;DHT22;9146;48.074;11.968;2023-05-03T07:05:39;10.50;99.90
18043;DHT22;9146;48.074;11.968;2023-05-03T07:08:07;10.70;99.90
18043;DHT22;9146;48.074;11.968;2023-05-03T07:10:34;10.80;99.90
18043;DHT22;9146;48.074;11.968;2023-05-03T07:13:01;10.90;99.90
18043;DHT22;9146;48.074;11.968;2023-05-03T07:15:29;10.80;99.90
18043;DHT22;9146;48.074;11.968;2023-05-03T07:17:57;10.90;99.90
18043;DHT22;9146;48.074;11.968;2023-05-03T07:20:24;10.90;99.90
18043;DHT22;9146;48.074;11.968;2023-05-03T07:22:51;11.10;99.90
18043;DHT22;9146;48.074;11.968;2023-05-03T07:25:19;11.20;99.90
18043;DHT22;9146;48.074;11.968;2023-05-03T07:27:46;11.20;99.90
18043;DHT22;9146;48.074;11.968;2023-05-03T07:30:13;11.20;99.90
18043;DHT22;9146;48.074;11.968;2023-05-03T07:32:40;11.40;99.90
18043;DHT22;9146;48.074;11.968;2023-05-03T07:35:08;11.60;99.90
18043;DHT22;9146;48.074;11.968;2023-05-03T07:37:35;11.70;99.90
18043;DHT22;9146;48.074;11.968;2023-05-03T07:40:03;11.70;99.90
18043;DHT22;9146;48.074;11.968;2023-05-03T07:42:33;11.80;99.90
18043;DHT22;9146;48.074;11.968;2023-05-03T07:45:00;11.80;99.90
18043;DHT22;9146;48.074;11.968;2023-05-03T07:47:28;11.80;99.90
18043;DHT22;9146;48.074;11.968;2023-05-03T07:49:55;12.00;99.90
18043;DHT22;9146;48.074;11.968;2023-05-03T07:52:22;12.00;99.90
18043;DHT22;9146;48.074;11.968;2023-05-03T07:54:49;12.10;99.90
18043;DHT22;9146;48.074;11.968;2023-05-03T07:57:17;12.20;99.90
18043;DHT22;9146;48.074;11.968;2023-05-03T07:59:45;12.20;99.90
18043;DHT22;9146;48.074;11.968;2023-05-03T08:02:12;12.20;99.90
18043;DHT22;9146;48.074;11.968;2023-05-03T08:04:39;12.30;99.90
18043;DHT22;9146;48.074;11.968;2023-05-03T08:07:06;12.30;99.90
18043;DHT22;9146;48.074;11.968;2023-05-03T08:09:33;12.30;99.90
18043;DHT22;9146;48.074;11.968;2023-05-03T08:12:01;12.50;99.90
18043;DHT22;9146;48.074;11.968;2023-05-03T08:14:28;12.70;99.90
18043;DHT22;9146;48.074;11.968;2023-05-03T08:16:56;12.90;99.90
18043;DHT22;9146;48.074;11.968;2023-05-03T08:19:24;13.00;99.90
18043;DHT22;9146;48.074;11.968;2023-05-03T08:21:51;13.20;99.90
18043;DHT22;9146;48.074;11.968;2023-05-03T08:24:19;13.40;99.90
18043;DHT22;9146;48.074;11.968;2023-05-03T08:26:46;13.60;99.90
18043;DHT22;9146;48.074;11.968;2023-05-03T08:29:13;13.80;99.90
18043;DHT22;9146;48.074;11.968;2023-05-03T08:31:40;13.80;99.90
18043;DHT22;9146;48.074;11.968;2023-05-03T08:34:09;13.80;99.90
18043;DHT22;9146;48.074;11.968;2023-05-03T08:36:37;13.60;99.90
18043;DHT22;9146;48.074;11.968;2023-05-03T08:39:04;13.30;99.90
18043;DHT22;9146;48.074;11.968;2023-05-03T08:41:32;13.30;99.90
18043;DHT22;9146;48.074;11.968;2023-05-03T08:44:00;13.30;99.90
18043;DHT22;9146;48.074;11.968;2023-05-03T08:46:28;13.30;99.90
18043;DHT22;9146;48.074;11.968;2023-05-03T08:48:55;13.30;99.90
18043;DHT22;9146;48.074;11.968;2023-05-03T08:51:24;13.40;99.90
18043;DHT22;9146;48.074;11.968;2023-05-03T08:53:52;13.40;99.90
18043;DHT22;9146;48.074;11.968;2023-05-03T08:56:23;13.50;99.90
18043;DHT22;9146;48.074;11.968;2023-05-03T08:58:51;13.70;99.90
18043;DHT22;9146;48.074;11.968;2023-05-03T09:01:19;13.90;99.90
18043;DHT22;9146;48.074;11.968;2023-05-03T09:03:48;14.20;99.90
18043;DHT22;9146;48.074;11.968;2023-05-03T09:06:19;14.40;99.90
18043;DHT22;9146;48.074;11.968;2023-05-03T09:08:48;14.70;99.90
18043;DHT22;9146;48.074;11.968;2023-05-03T09:11:22;14.90;99.90
18043;DHT22;9146;48.074;11.968;2023-05-03T09:13:49;15.20;99.90
18043;DHT22;9146;48.074;11.968;2023-05-03T09:16:26;15.50;99.90
18043;DHT22;9146;48.074;11.968;2023-05-03T09:18:58;15.60;99.90
18043;DHT22;9146;48.074;11.968;2023-05-03T09:21:25;15.70;99.90
18043;DHT22;9146;48.074;11.968;2023-05-03T09:23:54;15.60;99.90
18043;DHT22;9146;48.074;11.968;2023-05-03T09:26:31;15.70;99.90
18043;DHT22;9146;48.074;11.968;2023-05-03T09:28:59;15.90;99.90
18043;DHT22;9146;48.074;11.968;2023-05-03T09:31:27;16.00;99.90
18043;DHT22;9146;48.074;11.968;2023-05-03T09:33:54;16.20;99.90
18043;DHT22;9146;48.074;11.968;2023-05-03T09:36:22;16.50;99.90
18043;DHT22;9146;48.074;11.968;2023-05-03T09:38:50;16.40;99.90
18043;DHT22;9146;48.074;11.968;2023-05-03T09:41:27;16.40;99.90
18043;DHT22;9146;48.074;11.968;2023-05-03T09:43:54;16.40;99.90
18043;DHT22;9146;48.074;11.968;2023-05-03T09:46:27;16.40;99.90
18043;DHT22;9146;48.074;11.968;2023-05-03T09:48:55;16.30;99.90
18043;DHT22;9146;48.074;11.968;2023-05-03T09:51:23;16.20;99.90
18043;DHT22;9146;48.074;11.968;2023-05-03T09:53:50;16.30;99.90
18043;DHT22;9146;48.074;11.968;2023-05-03T09:56:17;16.20;99.90
18043;DHT22;9146;48.074;11.968;2023-05-03T09:58:52;16.40;99.90
18043;DHT22;9146;48.074;11.968;2023-05-03T10:01:20;16.50;99.90
18043;DHT22;9146;48.074;11.968;2023-05-03T10:03:48;16.60;99.90
18043;DHT22;9146;48.074;11.968;2023-05-03T10:06:23;16.60;99.90
18043;DHT22;9146;48.074;11.968;2023-05-03T10:08:55;16.70;99.90
18043;DHT22;9146;48.074;11.968;2023-05-03T10:11:26;16.90;99.90
18043;DHT22;9146;48.074;11.968;2023-05-03T10:13:54;17.10;99.90
18043;DHT22;9146;48.074;11.968;2023-05-03T10:16:26;17.00;99.90
18043;DHT22;9146;48.074;11.968;2023-05-03T10:19:02;17.00;99.90
18043;DHT22;9146;48.074;11.968;2023-05-03T10:21:37;16.90;99.90
18043;DHT22;9146;48.074;11.968;2023-05-03T10:24:12;17.00;99.90
18043;DHT22;9146;48.074;11.968;2023-05-03T10:26:40;16.80;99.90
18043;DHT22;9146;48.074;11.968;2023-05-03T10:29:45;16.80;99.90
18043;DHT22;9146;48.074;11.968;2023-05-03T10:32:32;16.70;99.90
18043;DHT22;9146;48.074;11.968;2023-05-03T10:35:01;16.60;99.90
18043;DHT22;9146;48.074;11.968;2023-05-03T10:37:29;16.50;99.90
18043;DHT22;9146;48.074;11.968;2023-05-03T10:39:55;16.50;99.90
18043;DHT22;9146;48.074;11.968;2023-05-03T10:42:35;16.40;99.90
18043;DHT22;9146;48.074;11.968;2023-05-03T10:45:07;16.40;99.90
18043;DHT22;9146;48.074;11.968;2023-05-03T10:47:34;16.50;99.90
18043;DHT22;9146;48.074;11.968;2023-05-03T10:50:23;16.60;99.90
18043;DHT22;9146;48.074;11.968;2023-05-03T10:52:50;16.80;99.90
18043;DHT22;9146;48.074;11.968;2023-05-03T10:55:19;16.90;99.90
18043;DHT22;9146;48.074;11.968;2023-05-03T10:57:47;17.10;99.90
18043;DHT22;9146;48.074;11.968;2023-05-03T11:00:21;17.10;99.90
18043;DHT22;9146;48.074;11.968;2023-05-03T11:03:08;17.10;99.90
18043;DHT22;9146;48.074;11.968;2023-05-03T11:05:37;17.00;99.90
18043;DHT22;9146;48.074;11.968;2023-05-03T11:08:09;17.10;99.90
18043;DHT22;9146;48.074;11.968;2023-05-03T11:10:36;17.20;99.90
18043;DHT22;9146;48.074;11.968;2023-05-03T11:13:03;17.40;99.90
18043;DHT22;9146;48.074;11.968;2023-05-03T11:15:31;17.60;99.90
18043;DHT22;9146;48.074;11.968;2023-05-03T11:17:58;18.00;99.90
18043;DHT22;9146;48.074;11.968;2023-05-03T11:20:25;18.10;99.90
18043;DHT22;9146;48.074;11.968;2023-05-03T11:22:52;18.20;99.90
18043;DHT22;9146;48.074;11.968;2023-05-03T11:25:19;18.40;99.90
18043;DHT22;9146;48.074;11.968;2023-05-03T11:27:46;18.30;99.90
18043;DHT22;9146;48.074;11.968;2023-05-03T11:30:13;18.30;99.90
18043;DHT22;9146;48.074;11.968;2023-05-03T11:32:43;18.30;99.90
18043;DHT22;9146;48.074;11.968;2023-05-03T11:35:12;18.50;99.90
18043;DHT22;9146;48.074;11.968;2023-05-03T11:37:41;18.70;99.90
18043;DHT22;9146;48.074;11.968;2023-05-03T11:40:14;18.90;99.90
18043;DHT22;9146;48.074;11.968;2023-05-03T11:42:52;18.90;99.90
18043;DHT22;9146;48.074;11.968;2023-05-03T11:45:20;18.70;99.90
18043;DHT22;9146;48.074;11.968;2023-05-03T11:47:49;18.40;99.90
18043;DHT22;9146;48.074;11.968;2023-05-03T11:50:26;18.10;99.90
18043;DHT22;9146;48.074;11.968;2023-05-03T11:52:55;17.90;99.90
18043;DHT22;9146;48.074;11.968;2023-05-03T11:55:22;18.00;99.90
18043;DHT22;9146;48.074;11.968;2023-05-03T11:57:50;18.20;99.90
18043;DHT22;9146;48.074;11.968;2023-05-03T12:00:18;18.40;99.90
18043;DHT22;9146;48.074;11.968;2023-05-03T12:02:47;18.70;99.90
18043;DHT22;9146;48.074;11.968;2023-05-03T12:05:15;18.90;99.90
18043;DHT22;9146;48.074;11.968;2023-05-03T12:07:43;19.00;99.90
18043;DHT22;9146;48.074;11.968;2023-05-03T12:10:14;19.00;99.90
18043;DHT22;9146;48.074;11.968;2023-05-03T12:12:55;19.00;99.90
18043;DHT22;9146;48.074;11.968;2023-05-03T12:15:28;19.00;99.90
18043;DHT22;9146;48.074;11.968;2023-05-03T12:17:56;18.70;99.90
18043;DHT22;9146;48.074;11.968;2023-05-03T12:20:26;18.60;99.90
18043;DHT22;9146;48.074;11.968;2023-05-03T12:22:56;18.30;99.90
18043;DHT22;9146;48.074;11.968;2023-05-03T12:25:23;18.10;99.90
18043;DHT22;9146;48.074;11.968;2023-05-03T12:27:51;18.00;99.90
18043;DHT22;9146;48.074;11.968;2023-05-03T12:30:19;18.00;99.90
18043;DHT22;9146;48.074;11.968;2023-05-03T12:32:46;17.90;99.90
18043;DHT22;9146;48.074;11.968;2023-05-03T12:35:13;17.80;99.90
18043;DHT22;9146;48.074;11.968;2023-05-03T12:37:42;17.70;99.90
18043;DHT22;9146;48.074;11.968;2023-05-03T12:40:09;17.60;99.90
18043;DHT22;9146;48.074;11.968;2023-05-03T12:42:36;17.70;99.90
18043;DHT22;9146;48.074;11.968;2023-05-03T12:45:04;17.90;99.90
18043;DHT22;9146;48.074;11.968;2023-05-03T12:47:32;18.00;99.90
18043;DHT22;9146;48.074;11.968;2023-05-03T12:49:59;18.10;99.90
18043;DHT22;9146;48.074;11.968;2023-05-03T12:52:27;18.00;99.90
18043;DHT22;9146;48.074;11.968;2023-05-03T12:54:56;17.90;99.90
18043;DHT22;9146;48.074;11.968;2023-05-03T12:57:24;17.70;99.90
18043;DHT22;9146;48.074;11.968;2023-05-03T12:59:52;17.60;99.90
18043;DHT22;9146;48.074;11.968;2023-05-03T13:02:19;17.50;99.90
18043;DHT22;9146;48.074;11.968;2023-05-03T13:04:47;17.40;99.90
18043;DHT22;9146;48.074;11.968;2023-05-03T13:07:14;17.40;99.90
18043;DHT22;9146;48.074;11.968;2023-05-03T13:09:43;17.40;99.90
18043;DHT22;9146;48.074;11.968;2023-05-03T13:12:12;17.50;99.90
18043;DHT22;9146;48.074;11.968;2023-05-03T13:14:40;17.50;99.90
18043;DHT22;9146;48.074;11.968;2023-05-03T13:17:07;17.50;99.90
18043;DHT22;9146;48.074;11.968;2023-05-03T13:19:34;17.50;99.90
18043;DHT22;9146;48.074;11.968;2023-05-03T13:22:02;17.50;99.90
18043;DHT22;9146;48.074;11.968;2023-05-03T13:24:29;17.40;99.90
18043;DHT22;9146;48.074;11.968;2023-05-03T13:26:55;17.50;99.90
18043;DHT22;9146;48.074;11.968;2023-05-03T13:29:25;17.60;99.90
18043;DHT22;9146;48.074;11.968;2023-05-03T13:31:52;17.70;99.90
18043;DHT22;9146;48.074;11.968;2023-05-03T13:34:19;17.90;99.90
18043;DHT22;9146;48.074;11.968;2023-05-03T13:36:46;17.90;99.90
18043;DHT22;9146;48.074;11.968;2023-05-03T13:39:13;18.00;99.90
18043;DHT22;9146;48.074;11.968;2023-05-03T13:41:40;18.00;99.90
18043;DHT22;9146;48.074;11.968;2023-05-03T13:44:08;17.80;99.90
18043;DHT22;9146;48.074;11.968;2023-05-03T13:46:37;17.80;99.90
18043;DHT22;9146;48.074;11.968;2023-05-03T13:49:05;17.70;99.90
18043;DHT22;9146;48.074;11.968;2023-05-03T13:51:33;17.70;99.90
18043;DHT22;9146;48.074;11.968;2023-05-03T13:54:02;17.80;99.90
18043;DHT22;9146;48.074;11.968;2023-05-03T13:56:29;17.80;99.90
18043;DHT22;9146;48.074;11.968;2023-05-03T13:58:56;17.90;99.90
18043;DHT22;9146;48.074;11.968;2023-05-03T14:01:24;17.80;99.90
18043;DHT22;9146;48.074;11.968;2023-05-03T14:03:53;17.90;99.90
18043;DHT22;9146;48.074;11.968;2023-05-03T14:06:21;17.90;99.90
18043;DHT22;9146;48.074;11.968;2023-05-03T14:08:49;17.90;99.90
18043;DHT22;9146;48.074;11.968;2023-05-03T14:11:17;17.90;99.90
18043;DHT22;9146;48.074;11.968;2023-05-03T14:13:46;17.90;99.90
18043;DHT22;9146;48.074;11.968;2023-05-03T14:16:16;18.00;99.90
18043;DHT22;9146;48.074;11.968;2023-05-03T14:18:44;18.00;99.90
18043;DHT22;9146;48.074;11.968;2023-05-03T14:21:14;18.00;99.90
18043;DHT22;9146;48.074;11.968;2023-05-03T14:23:43;17.90;99.90
18043;DHT22;9146;48.074;11.968;2023-05-03T14:26:11;17.80;99.90
18043;DHT22;9146;48.074;11.968;2023-05-03T14:28:39;17.70;99.90
18043;DHT22;9146;48.074;11.968;2023-05-03T14:31:06;17.70;99.90
18043;DHT22;9146;48.074;11.968;2023-05-03T14:33:34;17.60;99.90
18043;DHT22;9146;48.074;11.968;2023-05-03T14:36:01;17.60;99.90
18043;DHT22;9146;48.074;11.968;2023-05-03T14:38:30;17.60;99.90
18043;DHT22;9146;48.074;11.968;2023-05-03T14:40:57;17.70;99.90
18043;DHT22;9146;48.074;11.968;2023-05-03T14:43:24;17.70;99.90
18043;DHT22;9146;48.074;11.968;2023-05-03T14:45:52;17.80;99.90
18043;DHT22;9146;48.074;11.968;2023-05-03T14:48:19;17.80;99.90
18043;DHT22;9146;48.074;11.968;2023-05-03T14:50:49;17.80;99.90
18043;DHT22;9146;48.074;11.968;2023-05-03T14:53:16;17.70;99.90
18043;DHT22;9146;48.074;11.968;2023-05-03T14:55:44;17.70;99.90
18043;DHT22;9146;48.074;11.968;2023-05-03T14:58:12;17.70;99.90
18043;DHT22;9146;48.074;11.968;2023-05-03T15:00:39;17.70;99.90
18043;DHT22;9146;48.074;11.968;2023-05-03T15:03:06;17.70;99.90
18043;DHT22;9146;48.074;11.968;2023-05-03T15:05:41;17.70;99.90
18043;DHT22;9146;48.074;11.968;2023-05-03T15:08:08;17.70;99.90
18043;DHT22;9146;48.074;11.968;2023-05-03T15:10:37;17.80;99.90
18043;DHT22;9146;48.074;11.968;2023-05-03T15:13:06;17.80;99.90
18043;DHT22;9146;48.074;11.968;2023-05-03T15:15:33;17.80;99.90
18043;DHT22;9146;48.074;11.968;2023-05-03T15:18:00;17.80;99.90
18043;DHT22;9146;48.074;11.968;2023-05-03T15:20:27;17.90;99.90
18043;DHT22;9146;48.074;11.968;2023-05-03T15:22:54;17.90;99.90
18043;DHT22;9146;48.074;11.968;2023-05-03T15:25:21;18.00;99.90
18043;DHT22;9146;48.074;11.968;2023-05-03T15:27:49;18.00;99.90
18043;DHT22;9146;48.074;11.968;2023-05-03T15:30:18;18.00;99.90
18043;DHT22;9146;48.074;11.968;2023-05-03T15:32:45;18.10;99.90
18043;DHT22;9146;48.074;11.968;2023-05-03T15:35:12;18.10;99.90
18043;DHT22;9146;48.074;11.968;2023-05-03T15:37:39;18.10;99.90
18043;DHT22;9146;48.074;11.968;2023-05-03T15:40:08;18.00;99.90
18043;DHT22;9146;48.074;11.968;2023-05-03T15:42:36;17.90;99.90
18043;DHT22;9146;48.074;11.968;2023-05-03T15:45:05;17.80;99.90